Time;durP1;ratioP1;P1;durP2;ratioP2;P2;SDS_P1;SDS_P2;PMS_P1;PMS_P2;Temp;Humidity;BMP_temperature;BMP_pressure;BME280_temperature;BME280_humidity;BME280_pressure;Samples;Min_cycle;Max_cycle;Signal;HPM_P1;HPM_P2
2023/10/22 00:01:19;;;;;;;2.65;2.35;;;;;;;13.06;77.16;95777.88;4825155;29;20099;-81
2023/10/22 00:03:47;;;;;;;2.63;2.30;;;;;;;13.08;76.40;95780.28;4825433;29;20051;-81
2023/10/22 00:06:15;;;;;;;2.60;2.40;;;;;;;13.09;77.55;95785.28;4825625;29;20046;-81
2023/10/22 00:08:43;;;;;;;2.70;2.20;;;;;;;13.10;78.24;95781.66;4825464;29;20110;-81
2023/10/22 01:10:36;;;;;;;3.58;2.65;;;;;;;12.50;75.46;95797.88;5270113;24;20050;-80
2023/10/22 01:13:04;;;;;;;3.28;2.72;;;;;;;12.45;75.45;95796.94;4842163;29;20145;-80
2023/10/22 01:15:32;;;;;;;4.88;2.75;;;;;;;12.40;75.38;95802.81;4848105;29;20505;-80
2023/10/22 01:18:00;;;;;;;2.63;2.30;;;;;;;12.36;75.33;95797.19;4842055;29;20062;-80
2023/10/22 01:20:27;;;;;;;5.32;2.80;;;;;;;12.34;75.35;95804.44;4845341;29;20046;-80
2023/10/22 01:22:55;;;;;;;3.38;3.08;;;;;;;12.31;75.37;95804.06;4845339;29;20172;-80
2023/10/22 04:52:46;;;;;;;2.67;1.50;;;;;;;11.41;74.33;95926.84;5503455;24;20054;-80
2023/10/22 04:55:13;;;;;;;3.38;1.95;;;;;;;11.35;74.13;95923.25;4843111;29;20136;-80
2023/10/22 04:57:41;;;;;;;3.33;1.35;;;;;;;11.29;73.89;95929.25;4843318;29;20312;-80
2023/10/22 05:00:11;;;;;;;2.72;1.45;;;;;;;11.23;73.77;95930.06;4843273;29;20537;-80
2023/10/22 05:02:38;;;;;;;2.83;1.45;;;;;;;11.16;73.79;95924.06;4843588;29;20057;-80
2023/10/22 05:05:06;;;;;;;2.78;1.45;;;;;;;11.10;73.70;95923.03;4860917;29;20054;-80
2023/10/22 05:07:34;;;;;;;3.83;1.77;;;;;;;11.05;73.85;95933.28;4851643;29;20057;-81
2023/10/22 05:10:03;;;;;;;4.45;2.25;;;;;;;11.00;73.93;95943.50;4860798;29;20114;-81
2023/10/22 05:12:31;;;;;;;2.13;1.92;;;;;;;10.96;73.97;95942.31;4859382;29;20102;-81
2023/10/22 05:14:59;;;;;;;1.80;1.70;;;;;;;10.89;73.98;95943.13;4848826;29;20054;-80
2023/10/22 05:17:26;;;;;;;3.45;1.80;;;;;;;10.83;74.11;95949.13;4843965;29;20144;-81
2023/10/22 05:19:54;;;;;;;2.45;2.20;;;;;;;10.79;74.15;95945.31;4843067;29;20137;-80
2023/10/22 05:22:22;;;;;;;1.85;1.75;;;;;;;10.76;74.28;95950.09;4842579;29;20053;-81
2023/10/22 05:24:49;;;;;;;2.88;1.98;;;;;;;10.74;74.05;95952.13;4842881;29;20085;-81
2023/10/22 05:27:19;;;;;;;1.90;1.80;;;;;;;10.68;74.08;95949.31;4843283;29;20082;-81
2023/10/22 05:29:47;;;;;;;2.10;1.80;;;;;;;10.63;74.17;95956.94;4842401;29;20426;-81
2023/10/22 05:32:15;;;;;;;2.30;1.92;;;;;;;10.62;73.90;95955.31;4842979;29;20077;-81
2023/10/22 05:34:43;;;;;;;3.95;2.05;;;;;;;10.60;73.98;95957.31;4843748;29;20091;-81
2023/10/22 05:37:11;;;;;;;2.97;1.88;;;;;;;10.59;73.90;95955.72;4842652;29;20045;-81
2023/10/22 05:39:39;;;;;;;2.08;1.85;;;;;;;10.58;73.88;95961.91;4842580;29;20510;-81
2023/10/22 05:42:07;;;;;;;3.60;2.13;;;;;;;10.62;76.48;95965.75;4843274;29;20050;-81
2023/10/22 05:44:37;;;;;;;2.38;2.17;;;;;;;10.64;74.73;95962.94;4846647;29;20053;-81
2023/10/22 05:47:05;;;;;;;4.95;1.80;;;;;;;10.59;74.26;95957.53;4843072;29;20152;-81
2023/10/22 05:49:33;;;;;;;2.17;1.95;;;;;;;10.55;73.68;95967.53;4843270;29;20086;-81
2023/10/22 05:52:02;;;;;;;3.28;1.65;;;;;;;10.50;73.37;95972.53;4842398;29;20514;-81
2023/10/22 05:54:30;;;;;;;1.40;1.30;;;;;;;10.47;73.47;95978.13;4843143;29;20197;-81
2023/10/22 05:56:58;;;;;;;2.90;1.40;;;;;;;10.45;73.47;95974.91;4843032;29;20050;-81
2023/10/22 05:59:26;;;;;;;2.72;1.25;;;;;;;10.42;73.50;95972.72;4843036;29;20096;-81
2023/10/22 06:01:55;;;;;;;2.80;1.08;;;;;;;10.39;73.16;95966.09;4843008;29;20138;-81
2023/10/22 06:04:22;;;;;;;1.58;1.33;;;;;;;10.39;73.26;95978.34;4843467;29;20479;-81
2023/10/22 06:06:50;;;;;;;3.15;1.42;;;;;;;10.36;73.01;95984.72;4846046;29;20150;-81
2023/10/22 06:09:18;;;;;;;2.40;1.23;;;;;;;10.37;73.16;95988.16;4846908;29;20115;-81
2023/10/22 06:11:46;;;;;;;2.70;1.20;;;;;;;10.37;72.96;95998.56;4846151;29;20064;-81
2023/10/22 06:14:14;;;;;;;2.78;1.55;;;;;;;10.36;72.67;95999.56;4846278;29;20110;-81
2023/10/22 06:16:44;;;;;;;1.02;0.85;;;;;;;10.38;73.87;96005.38;4846173;29;20058;-81
2023/10/22 06:19:14;;;;;;;2.78;1.30;;;;;;;10.41;73.17;96010.22;4846239;29;20058;-80
2023/10/22 06:21:41;;;;;;;2.25;1.10;;;;;;;10.41;73.53;96011.03;4846118;29;20065;-81
2023/10/22 06:24:10;;;;;;;1.95;1.17;;;;;;;10.43;73.70;96010.81;4846016;29;20135;-81
2023/10/22 06:26:38;;;;;;;3.30;1.35;;;;;;;10.43;73.33;96009.03;4845828;29;20144;-80
2023/10/22 06:29:05;;;;;;;3.15;1.30;;;;;;;10.49;75.69;96017.84;4846341;29;20118;-81
2023/10/22 06:31:33;;;;;;;1.42;0.90;;;;;;;10.54;74.95;96020.72;4846274;29;20140;-81
2023/10/22 06:34:02;;;;;;;3.38;1.00;;;;;;;10.61;74.16;96023.34;4845580;29;20050;-81
2023/10/22 06:36:32;;;;;;;2.40;1.40;;;;;;;10.68;73.40;96030.16;4845766;29;20567;-81
2023/10/22 06:38:59;;;;;;;4.35;1.33;;;;;;;10.76;72.78;96028.38;4845185;29;20100;-81
2023/10/22 06:41:27;;;;;;;2.17;1.13;;;;;;;10.82;72.17;96030.19;4845178;29;20057;-81
2023/10/22 06:43:55;;;;;;;2.80;1.50;;;;;;;10.91;72.63;96042.06;4845639;29;20140;-81
2023/10/22 06:46:22;;;;;;;4.15;2.00;;;;;;;11.04;72.29;96046.50;4845365;29;20057;-80
2023/10/22 06:48:50;;;;;;;1.80;1.20;;;;;;;11.18;71.18;96052.56;4845254;29;20468;-80
2023/10/22 06:51:18;;;;;;;2.47;1.40;;;;;;;11.32;70.93;96052.38;4845119;29;20525;-81
2023/10/22 06:53:48;;;;;;;0.82;0.82;;;;;;;11.46;70.26;96055.00;4845090;29;20083;-81
2023/10/22 06:56:16;;;;;;;4.03;1.15;;;;;;;11.61;69.95;96057.41;4846440;29;20050;-81
2023/10/22 06:58:45;;;;;;;3.67;0.95;;;;;;;11.73;69.45;96061.03;4845560;29;20076;-80
2023/10/22 07:01:15;;;;;;;1.23;0.88;;;;;;;11.87;69.53;96061.81;4846102;29;20106;-81
2023/10/22 07:03:45;;;;;;;2.20;0.98;;;;;;;12.01;68.46;96063.44;4845966;29;20145;-81
2023/10/22 07:06:13;;;;;;;2.08;0.90;;;;;;;12.13;68.03;96072.28;4845773;29;20456;-81
2023/10/22 07:08:43;;;;;;;2.97;1.20;;;;;;;12.25;67.46;96071.66;4845926;29;20522;-81
2023/10/22 07:11:12;;;;;;;2.08;0.82;;;;;;;12.36;67.07;96081.47;4845259;29;20061;-80
2023/10/22 07:13:39;;;;;;;0.82;0.70;;;;;;;12.49;66.95;96072.78;4845731;29;20054;-81
2023/10/22 07:16:08;;;;;;;3.83;1.00;;;;;;;12.62;66.76;96077.19;4850387;29;20083;-81
2023/10/22 07:18:36;;;;;;;1.75;1.10;;;;;;;12.74;66.25;96076.28;4854826;29;20068;-81
2023/10/22 07:21:04;;;;;;;1.95;0.98;;;;;;;12.87;66.37;96082.50;4845446;29;20118;-80
2023/10/22 07:23:32;;;;;;;2.70;1.30;;;;;;;13.02;65.38;96090.88;4845653;29;20050;-81
2023/10/22 07:26:00;;;;;;;1.83;1.20;;;;;;;13.14;64.97;96089.22;4844990;29;20050;-81
2023/10/22 07:28:29;;;;;;;1.95;1.15;;;;;;;13.28;64.97;96091.75;4844602;29;20141;-80
2023/10/22 07:30:56;;;;;;;1.45;1.00;;;;;;;13.42;64.65;96095.09;4845534;29;20141;-80
2023/10/22 07:33:24;;;;;;;1.90;0.77;;;;;;;13.56;63.50;96102.66;4846428;29;20053;-81
2023/10/22 07:35:54;;;;;;;3.33;1.38;;;;;;;13.72;64.67;96095.31;4844892;29;20056;-80
2023/10/22 07:38:22;;;;;;;3.15;1.30;;;;;;;13.88;64.92;96100.00;4843895;29;20106;-81
2023/10/22 07:40:55;;;;;;;8.70;4.95;;;;;;;14.04;62.81;96103.09;4844413;29;20507;-80
2023/10/22 07:43:25;;;;;;;5.03;1.20;;;;;;;14.20;61.89;96103.34;4840433;29;20137;-80
2023/10/22 07:45:54;;;;;;;3.05;1.00;;;;;;;14.38;61.34;96107.81;4830149;29;20050;-76
2023/10/22 07:48:22;;;;;;;14.65;2.33;;;;;;;14.61;61.92;96104.56;4841582;29;20521;-74
2023/10/22 07:50:49;;;;;;;4.88;2.22;;;;;;;14.88;60.26;96114.75;4829297;29;20141;-75
2023/10/22 07:53:17;;;;;;;2.63;1.63;;;;;;;15.06;59.81;96111.31;4838679;29;20046;-75
2023/10/22 07:55:45;;;;;;;5.18;1.55;;;;;;;15.28;59.45;96129.22;4842441;29;20050;-75
2023/10/22 07:58:13;;;;;;;1.92;1.35;;;;;;;15.47;58.55;96127.34;4842070;29;20580;-74
2023/10/22 08:00:40;;;;;;;1.83;0.95;;;;;;;15.57;57.67;96127.63;4837903;29;20054;-75
2023/10/22 08:03:09;;;;;;;3.70;1.10;;;;;;;15.66;59.17;96132.31;4833955;29;20076;-74
2023/10/22 08:05:39;;;;;;;1.70;0.70;;;;;;;15.83;58.56;96136.94;4842045;29;20114;-74
2023/10/22 08:08:06;;;;;;;2.00;0.82;;;;;;;15.95;56.70;96145.66;4839171;29;20050;-74
2023/10/22 08:10:34;;;;;;;6.93;1.95;;;;;;;16.12;56.86;96148.44;4847472;29;20113;-80
2023/10/22 08:13:02;;;;;;;6.15;3.67;;;;;;;16.33;57.96;96141.78;4853888;29;20047;-79
2023/10/22 08:15:30;;;;;;;24.67;17.73;;;;;;;16.56;60.76;96151.53;4852931;29;20085;-81
2023/10/22 08:17:57;;;;;;;19.13;13.00;;;;;;;16.85;61.01;96159.53;4839468;29;20122;-81
2023/10/22 08:20:27;;;;;;;3.20;1.30;;;;;;;17.13;60.20;96155.34;4851943;29;20167;-80
2023/10/22 08:22:55;;;;;;;2.90;0.82;;;;;;;17.37;55.88;96148.16;4853352;29;20065;-82
2023/10/22 08:25:23;;;;;;;1.77;0.70;;;;;;;17.61;58.06;96157.56;4828450;29;20058;-82
2023/10/22 08:27:51;;;;;;;2.03;0.40;;;;;;;17.78;54.14;96164.72;4847704;29;20089;-83
2023/10/22 08:30:19;;;;;;;2.30;0.40;;;;;;;17.96;51.53;96167.16;4863292;29;20114;-83
2023/10/22 08:32:47;;;;;;;1.98;0.38;;;;;;;18.21;56.48;96171.22;4833026;29;20130;-82
2023/10/22 08:35:15;;;;;;;2.03;0.65;;;;;;;18.41;56.18;96176.00;4837276;29;20058;-82
2023/10/22 08:37:45;;;;;;;2.03;0.50;;;;;;;18.63;51.16;96170.78;4844696;29;20049;-82
2023/10/22 08:40:12;;;;;;;2.55;0.50;;;;;;;18.81;49.70;96172.41;4841517;29;20240;-81
2023/10/22 08:42:40;;;;;;;1.40;0.43;;;;;;;18.97;51.93;96170.75;4841941;29;20566;-82
2023/10/22 08:45:09;;;;;;;3.42;0.80;;;;;;;19.12;53.24;96163.78;4841961;29;20046;-82
2023/10/22 08:47:37;;;;;;;2.00;0.43;;;;;;;19.30;54.64;96165.31;4844998;29;20049;-84
2023/10/22 08:50:08;;;;;;;2.85;0.57;;;;;;;19.52;51.58;96172.41;4844921;29;20046;-83
2023/10/22 08:52:35;;;;;;;53.28;37.42;;;;;;;19.72;52.59;96162.09;4842286;29;20054;-83
2023/10/22 08:55:05;;;;;;;37.17;22.58;;;;;;;19.92;51.97;96165.97;4844172;29;20579;-83
2023/10/22 08:57:33;;;;;;;11.90;7.35;;;;;;;20.09;52.51;96163.19;4835550;29;20507;-82
2023/10/22 09:00:01;;;;;;;7.57;5.50;;;;;;;20.26;51.50;96173.66;4826644;29;20153;-82
2023/10/22 09:02:32;;;;;;;7.13;3.28;;;;;;;20.42;51.45;96166.59;4826003;29;20088;-81
2023/10/22 09:05:00;;;;;;;3.33;1.83;;;;;;;20.62;51.15;96179.19;4828428;29;20060;-82
2023/10/22 09:07:50;;;;;;;3.88;1.00;;;;;;;20.79;46.28;96177.19;4827432;29;20480;-81
2023/10/22 09:10:31;;;;;;;2.80;0.55;;;;;;;20.89;43.42;96181.75;4825319;29;20054;-82
2023/10/22 09:13:14;;;;;;;1.90;0.52;;;;;;;20.99;45.83;96187.13;4825416;29;20567;-82
2023/10/22 09:15:43;;;;;;;3.58;0.95;;;;;;;21.15;46.66;96190.63;4825306;29;20694;-82
2023/10/22 09:18:12;;;;;;;1.60;0.70;;;;;;;21.20;42.36;96191.44;4825525;29;20082;-81
2023/10/22 09:20:41;;;;;;;2.15;0.80;;;;;;;21.23;45.12;96187.50;4827999;29;20073;-83
2023/10/22 09:23:17;;;;;;;2.50;0.70;;;;;;;21.30;44.57;96203.97;4826434;29;20473;-84
2023/10/22 09:25:48;;;;;;;33.75;22.52;;;;;;;21.41;42.07;96202.16;4828059;29;20073;-83
2023/10/22 09:28:20;;;;;;;11.75;7.60;;;;;;;21.54;43.96;96201.69;4829794;29;20574;-82
2023/10/22 09:30:48;;;;;;;;;;;;;;;21.69;43.11;96195.63;4827019;29;20149;-84
2023/10/22 09:33:21;;;;;;;2.15;0.80;;;;;;;21.74;41.03;96195.63;4827491;29;20023;-83
2023/10/22 09:35:58;;;;;;;2.95;1.23;;;;;;;21.85;39.71;96193.00;4827229;29;20062;-84
2023/10/22 09:38:44;;;;;;;1.65;0.77;;;;;;;21.95;44.32;96190.31;4827728;29;20408;-82
2023/10/22 09:41:20;;;;;;;1.80;0.40;;;;;;;22.02;44.45;96193.53;4832802;29;20458;-86
2023/10/22 09:43:47;;;;;;;1.85;0.50;;;;;;;22.07;44.33;96190.88;4847590;29;20470;-83
2023/10/22 09:46:17;;;;;;;1.45;0.68;;;;;;;22.12;44.60;96195.38;4847955;29;20168;-83
2023/10/22 09:48:48;;;;;;;1.25;0.70;;;;;;;22.19;45.51;96188.75;4848508;29;20057;-83
2023/10/22 09:51:17;;;;;;;3.22;0.80;;;;;;;22.30;40.52;96194.91;4847658;29;20058;-84
2023/10/22 09:53:52;;;;;;;43.97;26.48;;;;;;;22.43;41.54;96190.88;4839919;29;20157;-84
2023/10/22 09:56:23;;;;;;;36.22;26.10;;;;;;;22.49;39.22;96192.47;4828448;29;20058;-83
2023/10/22 09:58:57;;;;;;;5.65;4.05;;;;;;;22.58;44.43;96192.75;4828976;29;20074;-83
2023/10/22 10:01:26;;;;;;;17.10;13.07;;;;;;;22.68;43.56;96183.97;4828774;29;20530;-84
2023/10/22 10:03:58;;;;;;;4.55;2.65;;;;;;;22.81;38.88;96194.03;4828545;29;20074;-83
2023/10/22 10:06:26;;;;;;;3.33;1.02;;;;;;;22.95;41.85;96197.72;4828681;29;20065;-83
2023/10/22 10:08:54;;;;;;;4.50;0.63;;;;;;;23.02;37.55;96195.63;4828714;29;20060;-83
2023/10/22 10:11:24;;;;;;;3.83;1.63;;;;;;;23.02;37.61;96200.13;4827950;29;20050;-84
2023/10/22 10:13:52;;;;;;;2.88;1.00;;;;;;;23.02;36.75;96206.25;4828980;29;20499;-83
2023/10/22 10:16:24;;;;;;;4.18;0.93;;;;;;;23.06;37.11;96201.16;4828466;29;20085;-84
2023/10/22 10:19:05;;;;;;;7.25;4.85;;;;;;;23.12;40.31;96201.97;4827985;29;20062;-83
2023/10/22 10:21:40;;;;;;;9.18;6.35;;;;;;;23.17;36.58;96201.94;4827898;29;20146;-82
2023/10/22 10:24:23;;;;;;;3.92;1.50;;;;;;;23.28;38.23;96208.00;4827739;29;20054;-82
2023/10/22 10:27:13;;;;;;;5.13;1.20;;;;;;;23.40;40.97;96205.84;4828090;29;20058;-82
2023/10/22 10:29:41;;;;;;;2.60;0.93;;;;;;;23.58;37.83;96201.75;4828019;29;20158;-83
2023/10/22 10:32:22;;;;;;;2.42;0.95;;;;;;;23.65;38.46;96197.72;4827678;29;20073;-82
2023/10/22 10:34:50;;;;;;;4.68;0.65;;;;;;;23.74;36.65;96194.47;4828147;29;20054;-83
2023/10/22 10:37:20;;;;;;;2.10;0.68;;;;;;;23.77;34.86;96197.41;4829701;29;20074;-82
2023/10/22 10:39:51;;;;;;;2.80;0.60;;;;;;;23.90;37.77;96193.34;4830846;29;20064;-83
2023/10/22 10:42:53;;;;;;;4.30;0.70;;;;;;;24.11;37.93;96204.63;4833845;29;20136;-82
2023/10/22 10:45:21;;;;;;;3.30;0.60;;;;;;;24.25;38.43;96202.16;4845266;29;20046;-82
2023/10/22 10:47:48;;;;;;;2.35;0.45;;;;;;;24.27;35.78;96192.00;4846492;29;20065;-80
2023/10/22 10:50:19;;;;;;;4.68;1.20;;;;;;;24.30;39.27;96201.31;4845498;29;20484;-81
2023/10/22 10:53:03;;;;;;;3.53;0.82;;;;;;;24.32;34.80;96201.84;4845402;29;20084;-80
2023/10/22 10:55:36;;;;;;;3.05;0.68;;;;;;;24.29;35.00;96189.03;4829926;29;20089;-80
2023/10/22 10:58:05;;;;;;;4.60;2.03;;;;;;;24.27;33.32;96189.34;4827803;29;20057;-79
2023/10/22 11:00:33;;;;;;;47.40;43.35;;;;;;;24.26;35.48;96191.19;4827783;29;20060;-84
2023/10/22 11:03:02;;;;;;;84.88;76.65;;;;;;;24.24;37.71;96192.56;4829329;29;20082;-83
2023/10/22 11:05:33;;;;;;;117.30;105.28;;;;;;;24.30;36.42;96196.00;4828833;29;20054;-84
2023/10/22 11:08:00;;;;;;;359.30;324.38;;;;;;;24.34;39.14;96195.16;4828097;29;20471;-84
2023/10/22 11:10:30;;;;;;;258.85;233.13;;;;;;;24.43;38.58;96200.66;4827562;29;20100;-83
2023/10/22 11:13:08;;;;;;;62.47;56.55;;;;;;;24.43;35.64;96195.34;4827439;29;20101;-83
2023/10/22 11:15:42;;;;;;;35.33;32.17;;;;;;;24.46;37.10;96200.09;4826623;29;20047;-83
2023/10/22 11:18:16;;;;;;;24.52;22.42;;;;;;;24.51;39.84;96199.28;4827040;29;20145;-83
2023/10/22 11:20:57;;;;;;;14.27;13.13;;;;;;;24.58;40.03;96207.78;4827251;29;20080;-83
2023/10/22 11:23:25;;;;;;;5.00;2.10;;;;;;;24.65;38.93;96197.56;4827331;29;20419;-84
2023/10/22 11:25:53;;;;;;;18.40;11.55;;;;;;;24.59;34.03;96193.34;4827082;29;20149;-84
2023/10/22 11:28:25;;;;;;;3.42;1.10;;;;;;;24.57;37.48;96196.28;4827439;29;20081;-83
2023/10/22 11:30:56;;;;;;;;;;;;;;;24.65;37.93;96198.34;4836507;29;20058;-83
2023/10/22 11:33:34;;;;;;;2.50;1.35;;;;;;;24.56;33.45;96196.59;4848897;29;19963;-82
2023/10/22 11:36:17;;;;;;;2.70;1.17;;;;;;;24.48;34.54;96192.66;4864617;29;20054;-83
2023/10/22 11:38:46;;;;;;;17.13;10.63;;;;;;;24.44;36.43;96188.91;4850243;29;20058;-83
2023/10/22 11:41:15;;;;;;;22.42;16.00;;;;;;;24.42;38.33;96183.88;4849183;29;20060;-81
2023/10/22 11:43:44;;;;;;;6.43;4.65;;;;;;;24.41;41.17;96186.81;4854065;29;20119;-82
2023/10/22 11:46:12;;;;;;;3.13;1.40;;;;;;;24.35;37.19;96190.59;4852638;29;20088;-82
2023/10/22 11:48:46;;;;;;;4.82;3.35;;;;;;;24.21;33.91;96196.56;4850958;29;20057;-82
2023/10/22 11:51:15;;;;;;;187.02;159.82;;;;;;;24.10;34.50;96195.06;4848621;29;20620;-81
2023/10/22 11:53:45;;;;;;;337.55;301.73;;;;;;;24.05;38.16;96197.75;4841079;29;20146;-80
2023/10/22 11:56:12;;;;;;;456.67;408.25;;;;;;;23.98;35.02;96190.06;4830708;29;20058;-82
2023/10/22 11:58:40;;;;;;;372.98;333.10;;;;;;;23.96;35.63;96192.22;4828241;29;20054;-81
2023/10/22 12:01:09;;;;;;;198.48;170.23;;;;;;;23.93;33.47;96186.66;4835937;29;20058;-83
2023/10/22 12:03:37;;;;;;;410.13;366.48;;;;;;;23.85;36.24;96188.84;4848471;29;20053;-81
2023/10/22 12:06:05;;;;;;;354.00;315.85;;;;;;;23.80;38.80;96188.88;4849556;29;20110;-81
2023/10/22 12:08:32;;;;;;;118.32;101.97;;;;;;;23.79;38.63;96189.94;4848941;29;20057;-81
2023/10/22 12:11:00;;;;;;;249.95;198.07;;;;;;;23.83;37.62;96188.34;4847704;29;20085;-80
2023/10/22 12:13:27;;;;;;;109.22;77.75;;;;;;;23.79;35.20;96176.63;4848208;29;20073;-81
2023/10/22 12:15:55;;;;;;;335.45;277.60;;;;;;;23.71;37.97;96187.84;4847486;29;20113;-80
2023/10/22 12:18:24;;;;;;;238.63;198.90;;;;;;;23.61;36.07;96185.22;4848286;29;20096;-81
2023/10/22 12:20:52;;;;;;;17.08;14.35;;;;;;;23.56;35.14;96194.03;4847705;29;20054;-80
2023/10/22 12:23:19;;;;;;;4.80;2.92;;;;;;;23.43;35.57;96198.09;4847831;29;20061;-81
2023/10/22 12:25:49;;;;;;;1.50;0.80;;;;;;;23.37;36.17;96203.72;4846332;29;20060;-81
2023/10/22 12:28:17;;;;;;;3.55;0.88;;;;;;;23.27;35.20;96204.56;4847012;29;20499;-81
2023/10/22 12:30:45;;;;;;;0.68;0.30;;;;;;;23.09;33.49;96218.44;4847536;29;20083;-81
2023/10/22 12:33:12;;;;;;;0.88;0.50;;;;;;;22.94;39.41;96209.44;4847365;29;20176;-80
2023/10/22 12:35:41;;;;;;;22.38;17.05;;;;;;;22.84;39.33;96215.56;4855577;29;20079;-81
2023/10/22 12:38:09;;;;;;;58.78;46.35;;;;;;;22.79;38.90;96209.47;4849992;29;20418;-81
2023/10/22 12:40:37;;;;;;;6.53;4.70;;;;;;;22.71;35.74;96189.53;4847472;29;20140;-80
2023/10/22 12:43:05;;;;;;;45.20;41.22;;;;;;;22.59;40.51;96202.31;4847405;29;20137;-80
2023/10/22 12:45:32;;;;;;;71.80;64.25;;;;;;;22.48;38.43;96211.34;4847378;29;20073;-80
2023/10/22 12:48:00;;;;;;;225.98;202.52;;;;;;;22.36;35.96;96204.44;4847973;29;20061;-80
2023/10/22 12:50:27;;;;;;;231.32;187.45;;;;;;;22.25;35.64;96212.69;4847152;29;20061;-80
2023/10/22 12:52:56;;;;;;;49.67;39.53;;;;;;;22.18;38.20;96202.31;4848658;29;20418;-81
2023/10/22 12:55:25;;;;;;;5.85;3.60;;;;;;;22.12;36.36;96214.78;4847764;29;20113;-81
2023/10/22 12:57:53;;;;;;;2.13;0.70;;;;;;;21.98;34.97;96208.41;4848157;29;20081;-81
2023/10/22 13:00:20;;;;;;;1.45;0.60;;;;;;;21.85;34.84;96200.94;4847994;29;20486;-80
2023/10/22 13:02:48;;;;;;;1.65;0.65;;;;;;;21.74;34.40;96200.94;4847281;29;20074;-79
2023/10/22 13:05:16;;;;;;;0.77;0.30;;;;;;;21.71;35.57;96200.63;4847085;29;20056;-80
2023/10/22 13:07:44;;;;;;;2.55;0.43;;;;;;;21.69;36.61;96198.28;4847363;29;20053;-79
2023/10/22 13:10:13;;;;;;;1.85;0.77;;;;;;;21.71;39.75;96209.44;4846696;29;20056;-79
2023/10/22 13:12:40;;;;;;;3.25;0.95;;;;;;;21.72;37.69;96200.38;4846969;29;20488;-79
2023/10/22 13:15:24;;;;;;;2.85;0.60;;;;;;;21.70;40.58;96207.81;4848925;29;20062;-79
2023/10/22 13:17:53;;;;;;;2.28;0.40;;;;;;;21.70;42.12;96201.72;4849228;29;20506;-79
2023/10/22 13:20:20;;;;;;;1.77;0.60;;;;;;;21.67;42.49;96213.66;4850337;29;20121;-79
2023/10/22 13:22:48;;;;;;;1.67;0.40;;;;;;;21.64;39.72;96214.16;4849734;29;20073;-80
2023/10/22 13:25:18;;;;;;;2.20;0.63;;;;;;;21.56;36.29;96220.00;4849380;29;20487;-79
2023/10/22 13:27:45;;;;;;;2.15;0.70;;;;;;;21.48;40.76;96215.97;4850112;29;20088;-80
2023/10/22 13:30:13;;;;;;;5.82;3.80;;;;;;;21.44;38.84;96222.88;4849900;29;20083;-80
2023/10/22 13:32:41;;;;;;;15.88;12.23;;;;;;;21.38;40.24;96229.16;4849297;29;20102;-79
2023/10/22 13:35:09;;;;;;;6.78;1.75;;;;;;;21.30;37.95;96217.22;4848776;29;20094;-79
2023/10/22 13:37:36;;;;;;;2.50;0.90;;;;;;;21.20;36.29;96217.97;4851484;29;20058;-80
2023/10/22 13:40:05;;;;;;;4.32;0.73;;;;;;;21.11;37.01;96213.41;4851465;29;20562;-79
2023/10/22 13:42:34;;;;;;;12.75;8.52;;;;;;;21.06;39.01;96210.75;4851134;29;20062;-79
2023/10/22 13:45:02;;;;;;;8.38;4.57;;;;;;;20.99;37.65;96209.13;4850466;29;20098;-80
2023/10/22 13:47:30;;;;;;;3.80;1.55;;;;;;;20.92;36.91;96210.41;4850745;29;20078;-80
2023/10/22 13:49:57;;;;;;;1.70;0.70;;;;;;;20.85;36.37;96218.56;4849684;29;20622;-80
2023/10/22 13:52:25;;;;;;;1.05;0.20;;;;;;;20.78;36.28;96212.72;4849588;29;20133;-79
2023/10/22 13:54:52;;;;;;;2.25;0.77;;;;;;;20.71;35.69;96217.44;4849606;29;20140;-79
2023/10/22 13:57:21;;;;;;;2.38;0.57;;;;;;;20.58;35.42;96218.69;4849420;29;20426;-79
2023/10/22 13:59:50;;;;;;;0.75;0.30;;;;;;;20.48;36.21;96218.56;4848075;29;20068;-79
2023/10/22 14:02:18;;;;;;;2.13;0.60;;;;;;;20.40;38.08;96216.38;4848874;29;20144;-80
2023/10/22 14:04:46;;;;;;;1.75;0.63;;;;;;;20.33;40.80;96217.41;4847682;29;20084;-80
2023/10/22 14:07:14;;;;;;;0.93;0.40;;;;;;;20.26;36.67;96216.03;4847874;29;20149;-79
2023/10/22 14:09:42;;;;;;;2.15;0.50;;;;;;;20.20;36.48;96217.81;4847077;29;20529;-80
2023/10/22 14:12:10;;;;;;;0.70;0.30;;;;;;;20.14;36.48;96222.28;4849198;29;20108;-79
2023/10/22 14:14:38;;;;;;;0.82;0.30;;;;;;;20.13;40.78;96222.53;4848305;29;20059;-79
2023/10/22 14:17:07;;;;;;;1.98;0.30;;;;;;;20.08;38.31;96225.13;4847623;29;20050;-80
2023/10/22 14:19:35;;;;;;;1.75;0.40;;;;;;;20.05;37.02;96225.63;4847210;29;20127;-80
2023/10/22 14:22:03;;;;;;;1.42;0.57;;;;;;;20.00;42.01;96229.03;4848227;29;20121;-79
2023/10/22 14:24:34;;;;;;;1.60;0.50;;;;;;;19.97;43.64;96229.53;4847168;29;20076;-79
2023/10/22 14:27:02;;;;;;;1.63;0.55;;;;;;;19.92;40.15;96234.78;4845965;29;20090;-79
2023/10/22 14:29:40;;;;;;;2.35;0.75;;;;;;;19.83;40.04;96229.16;4847164;29;20149;-79
2023/10/22 14:32:09;;;;;;;2.08;0.57;;;;;;;19.80;40.89;96231.47;4846156;29;20585;-79
2023/10/22 14:34:36;;;;;;;1.05;0.65;;;;;;;19.74;41.56;96236.72;4848258;29;20102;-79
2023/10/22 14:37:04;;;;;;;1.42;0.65;;;;;;;19.64;39.30;96236.59;4849700;29;20089;-79
2023/10/22 14:39:32;;;;;;;3.75;0.60;;;;;;;19.53;38.76;96233.03;4851170;29;20154;-79
2023/10/22 14:42:00;;;;;;;1.73;0.60;;;;;;;19.47;41.55;96230.56;4848974;29;20054;-79
2023/10/22 14:44:28;;;;;;;1.95;0.70;;;;;;;19.42;39.59;96239.25;4847645;29;20053;-80
2023/10/22 14:46:56;;;;;;;1.75;0.40;;;;;;;19.38;39.17;96237.34;4847407;29;20086;-80
2023/10/22 14:49:25;;;;;;;2.08;0.50;;;;;;;19.35;39.84;96243.94;4848218;29;20157;-82
2023/10/22 14:51:53;;;;;;;2.38;0.57;;;;;;;19.31;39.83;96245.47;4848274;29;20140;-80
2023/10/22 14:54:20;;;;;;;2.13;0.52;;;;;;;19.24;40.00;96248.28;4847224;29;20054;-79
2023/10/22 14:56:48;;;;;;;2.45;0.73;;;;;;;19.18;42.01;96246.63;4846673;29;20085;-80
2023/10/22 14:59:17;;;;;;;1.20;0.40;;;;;;;19.13;40.18;96250.00;4846869;29;20085;-79
2023/10/22 15:01:45;;;;;;;3.63;0.60;;;;;;;19.08;43.58;96249.13;4846423;29;20102;-80
2023/10/22 15:04:13;;;;;;;2.72;0.60;;;;;;;19.06;45.19;96256.50;4846393;29;20167;-80
2023/10/22 15:06:42;;;;;;;2.40;0.93;;;;;;;19.02;41.75;96250.09;4845332;29;20054;-80
2023/10/22 15:09:11;;;;;;;1.05;0.40;;;;;;;18.99;45.32;96248.75;4846047;29;20101;-80
2023/10/22 15:11:39;;;;;;;3.00;0.47;;;;;;;18.97;41.10;96252.69;4846327;29;20145;-81
2023/10/22 15:14:06;;;;;;;2.60;0.60;;;;;;;18.94;44.07;96254.75;4847890;29;20144;-81
2023/10/22 15:16:34;;;;;;;2.47;0.63;;;;;;;18.86;41.93;96252.53;4845839;29;20088;-80
2023/10/22 15:19:02;;;;;;;1.60;0.47;;;;;;;18.79;41.89;96259.03;4845517;29;20149;-80
2023/10/22 15:21:29;;;;;;;1.15;0.52;;;;;;;18.71;40.65;96266.28;4848642;29;20053;-81
2023/10/22 15:24:00;;;;;;;2.38;0.75;;;;;;;18.69;47.03;96262.28;4849489;29;20503;-81
2023/10/22 15:26:28;;;;;;;3.40;0.50;;;;;;;18.66;44.71;96257.50;4849315;29;20054;-81
2023/10/22 15:28:55;;;;;;;3.13;0.80;;;;;;;18.64;47.45;96254.28;4847700;29;20152;-79
2023/10/22 15:31:23;;;;;;;2.45;0.50;;;;;;;18.57;42.25;96259.72;4845608;29;20050;-80
2023/10/22 15:33:51;;;;;;;1.90;0.57;;;;;;;18.53;50.29;96255.97;4845530;29;20427;-80
2023/10/22 15:36:18;;;;;;;1.77;0.50;;;;;;;18.50;47.55;96254.63;4845339;29;20054;-80
2023/10/22 15:38:46;;;;;;;2.17;0.65;;;;;;;18.47;44.56;96246.34;4844504;29;20503;-80
2023/10/22 15:41:15;;;;;;;1.27;0.40;;;;;;;18.39;47.63;96252.84;4847970;29;20118;-80
2023/10/22 15:43:43;;;;;;;2.40;0.80;;;;;;;18.31;43.38;96251.41;4850168;29;20081;-80
2023/10/22 15:46:20;;;;;;;2.28;0.77;;;;;;;18.25;48.96;96251.56;4851378;29;20408;-81
2023/10/22 15:48:49;;;;;;;3.75;0.70;;;;;;;18.22;49.02;96252.84;4851411;29;20081;-80
2023/10/22 15:51:17;;;;;;;2.35;0.60;;;;;;;18.17;51.89;96250.13;4850675;29;20046;-80
2023/10/22 15:53:45;;;;;;;1.95;0.50;;;;;;;18.16;52.59;96253.78;4849924;29;20054;-80
2023/10/22 15:56:14;;;;;;;1.30;0.60;;;;;;;18.12;49.05;96258.72;4849706;29;20491;-80
2023/10/22 15:58:43;;;;;;;3.33;0.38;;;;;;;18.07;50.43;96260.50;4849772;29;20050;-80
2023/10/22 16:01:15;;;;;;;2.30;0.57;;;;;;;18.03;46.33;96270.72;4850092;29;20060;-80
2023/10/22 16:03:43;;;;;;;1.00;0.47;;;;;;;18.00;54.04;96265.91;4850434;29;20449;-81
2023/10/22 16:06:11;;;;;;;3.25;1.75;;;;;;;17.98;52.50;96265.34;4850567;29;20050;-78